createdAt,value
2019-01-16T00:02:30.504Z,7.80
2019-01-16T00:04:58.166Z,7.80
2019-01-16T00:07:36.900Z,7.81
2019-01-16T00:10:09.754Z,7.79
2019-01-16T00:12:42.552Z,7.81
2019-01-16T00:15:12.514Z,7.80
2019-01-16T00:17:46.525Z,7.79
2019-01-16T00:20:19.259Z,7.79
2019-01-16T00:22:53.770Z,7.78
2019-01-16T00:25:36.275Z,7.75
2019-01-16T00:28:06.336Z,7.74
2019-01-16T00:30:39.320Z,7.73
2019-01-16T00:33:21.337Z,7.68
2019-01-16T00:35:51.267Z,7.67
2019-01-16T00:38:30.342Z,7.68
2019-01-16T00:41:15.217Z,7.66
2019-01-16T00:44:01.336Z,7.67
2019-01-16T00:46:37.294Z,7.64
2019-01-16T00:49:07.190Z,7.62
2019-01-16T00:51:37.239Z,7.64
2019-01-16T00:54:07.578Z,7.62
2019-01-16T00:56:37.631Z,7.63
2019-01-16T00:59:14.139Z,7.62
2019-01-16T01:01:44.068Z,7.62
2019-01-16T01:04:14.143Z,7.62
2019-01-16T01:06:49.807Z,7.65
2019-01-16T01:09:22.766Z,7.62
2019-01-16T01:12:08.910Z,7.64
2019-01-16T01:14:55.043Z,7.59
2019-01-16T01:17:28.112Z,7.62
2019-01-16T01:20:03.890Z,7.60
2019-01-16T01:22:36.667Z,7.60
2019-01-16T01:25:07.975Z,7.60
2019-01-16T01:27:47.434Z,7.59
2019-01-16T01:30:17.321Z,7.59
2019-01-16T01:32:47.280Z,7.56
2019-01-16T01:35:33.614Z,7.57
2019-01-16T01:38:19.891Z,7.58
2019-01-16T01:41:08.106Z,7.59
2019-01-16T01:43:50.403Z,7.57
2019-01-16T01:46:26.563Z,7.57
2019-01-16T01:49:05.849Z,7.57
2019-01-16T01:51:41.268Z,7.55
2019-01-16T01:54:17.009Z,7.54
2019-01-16T01:56:58.583Z,7.56
2019-01-16T01:59:44.643Z,7.57
2019-01-16T02:02:17.589Z,7.55
2019-01-16T02:05:04.109Z,7.51
2019-01-16T02:07:51.871Z,7.55
2019-01-16T02:10:26.806Z,7.56
2019-01-16T02:13:08.142Z,7.54
2019-01-16T02:15:39.873Z,7.56
2019-01-16T02:18:12.562Z,7.57
2019-01-16T02:20:42.498Z,7.58
2019-01-16T02:23:12.485Z,7.60
2019-01-16T02:25:54.423Z,7.58
2019-01-16T02:28:33.283Z,7.58
2019-01-16T02:31:18.225Z,7.58
2019-01-16T02:34:04.211Z,7.57
2019-01-16T02:36:46.429Z,7.60
2019-01-16T02:39:21.874Z,7.60
2019-01-16T02:41:51.835Z,7.61
2019-01-16T02:44:31.827Z,7.61
2019-01-16T02:47:11.909Z,7.61
2019-01-16T02:49:44.644Z,7.61
2019-01-16T02:52:25.126Z,7.63
2019-01-16T02:55:12.866Z,7.66
2019-01-16T02:57:45.670Z,7.69
2019-01-16T03:00:15.655Z,7.67
2019-01-16T03:03:01.652Z,7.69
2019-01-16T03:05:37.435Z,7.68
2019-01-16T03:08:07.431Z,7.66
2019-01-16T03:10:37.352Z,7.67
2019-01-16T03:13:18.930Z,7.72
2019-01-16T03:16:03.981Z,7.72
2019-01-16T03:18:36.823Z,7.70
2019-01-16T03:21:09.762Z,7.69
2019-01-16T03:23:44.936Z,7.73
2019-01-16T03:26:24.076Z,7.70
2019-01-16T03:28:56.519Z,7.69
2019-01-16T03:31:35.497Z,7.71
2019-01-16T03:34:14.505Z,7.71
2019-01-16T03:36:53.340Z,7.73
2019-01-16T03:39:29.191Z,7.72
2019-01-16T03:42:03.408Z,7.70
2019-01-16T03:44:51.262Z,7.73
2019-01-16T03:47:30.167Z,7.74
2019-01-16T03:50:15.318Z,7.72
2019-01-16T03:52:47.879Z,7.72
2019-01-16T03:55:26.643Z,7.74
2019-01-16T03:57:56.593Z,7.73
2019-01-16T04:00:31.175Z,7.72
2019-01-16T04:03:13.040Z,7.72
2019-01-16T04:05:46.202Z,7.73
2019-01-16T04:08:30.985Z,7.68
2019-01-16T04:11:06.893Z,7.69
2019-01-16T04:13:49.145Z,7.70
2019-01-16T04:16:31.840Z,7.72
2019-01-16T04:19:07.575Z,7.75
2019-01-16T04:21:39.649Z,7.77
2019-01-16T04:24:15.810Z,7.74
2019-01-16T04:26:51.730Z,7.75
2019-01-16T04:29:27.866Z,7.74
2019-01-16T04:32:09.642Z,7.77
2019-01-16T04:34:55.979Z,7.75
2019-01-16T04:37:31.758Z,7.72
2019-01-16T04:40:17.021Z,7.72
2019-01-16T04:42:46.930Z,7.73
2019-01-16T04:45:25.922Z,7.74
2019-01-16T04:48:11.885Z,7.73
2019-01-16T04:50:42.124Z,7.72
2019-01-16T04:53:12.115Z,7.74
2019-01-16T04:55:57.062Z,7.75
2019-01-16T04:58:42.178Z,7.75
2019-01-16T05:01:20.850Z,7.78
2019-01-16T05:03:54.291Z,7.75
2019-01-16T05:06:26.969Z,7.71
2019-01-16T05:08:56.954Z,7.73
2019-01-16T05:11:26.894Z,7.75
2019-01-16T05:14:04.636Z,7.74
2019-01-16T05:16:50.768Z,7.71
2019-01-16T05:19:23.698Z,7.74
2019-01-16T05:22:02.324Z,7.75
2019-01-16T05:24:38.658Z,7.72
2019-01-16T05:27:08.645Z,7.71
2019-01-16T05:29:50.833Z,7.73
2019-01-16T05:32:33.410Z,7.73
2019-01-16T05:35:19.661Z,7.68
2019-01-16T05:37:49.607Z,7.74
2019-01-16T05:40:31.576Z,7.70
2019-01-16T05:43:01.514Z,7.72
2019-01-16T05:45:52.628Z,7.70
2019-01-16T05:48:25.374Z,7.72
2019-01-16T05:50:58.221Z,7.68
2019-01-16T05:53:40.178Z,7.70
2019-01-16T05:56:25.072Z,7.71
2019-01-16T05:59:10.686Z,7.71
2019-01-16T06:01:40.599Z,7.72
2019-01-16T06:04:16.320Z,7.71
2019-01-16T06:06:47.920Z,7.74
2019-01-16T06:09:20.302Z,7.74
2019-01-16T06:11:50.287Z,7.79
2019-01-16T06:14:31.953Z,7.78
2019-01-16T06:17:14.052Z,7.77
2019-01-16T06:19:44.011Z,7.78
2019-01-16T06:22:13.996Z,7.75
2019-01-16T06:24:43.924Z,7.81
2019-01-16T06:27:22.779Z,7.80
2019-01-16T06:29:52.698Z,7.82
2019-01-16T06:32:28.509Z,7.76
2019-01-16T06:35:14.928Z,7.76
2019-01-16T06:38:03.146Z,7.79
2019-01-16T06:40:33.088Z,7.77
2019-01-16T06:43:07.472Z,7.79
2019-01-16T06:45:49.552Z,7.78
2019-01-16T06:48:22.188Z,7.80
2019-01-16T06:50:57.650Z,7.79
2019-01-16T06:53:39.793Z,7.79
2019-01-16T06:56:12.764Z,7.77
2019-01-16T06:58:51.782Z,7.76
2019-01-16T07:01:27.634Z,7.80
2019-01-16T07:04:00.649Z,7.81
2019-01-16T07:06:40.292Z,7.83
2019-01-16T07:09:16.200Z,7.86
2019-01-16T07:11:51.964Z,7.84
2019-01-16T07:14:38.242Z,7.84
2019-01-16T07:17:11.342Z,7.82
2019-01-16T07:19:47.392Z,7.80
2019-01-16T07:22:17.302Z,7.84
2019-01-16T07:24:50.152Z,7.84
2019-01-16T07:27:32.015Z,7.83
2019-01-16T07:30:01.979Z,7.78
2019-01-16T07:32:40.912Z,7.77
2019-01-16T07:35:22.750Z,7.79
2019-01-16T07:38:07.744Z,7.79
2019-01-16T07:40:53.756Z,7.78
2019-01-16T07:43:29.670Z,7.74
2019-01-16T07:46:02.053Z,7.74
2019-01-16T07:48:32.099Z,7.76
2019-01-16T07:51:07.811Z,7.76
2019-01-16T07:53:43.609Z,7.74
2019-01-16T07:56:13.632Z,7.76
2019-01-16T07:58:55.686Z,7.76
2019-01-16T08:01:25.602Z,7.77
2019-01-16T08:03:55.547Z,7.77
2019-01-16T08:06:25.601Z,7.77
2019-01-16T08:09:01.031Z,7.75
2019-01-16T08:11:49.039Z,7.74
2019-01-16T08:14:18.965Z,7.72
2019-01-16T08:17:00.978Z,7.74
2019-01-16T08:19:45.693Z,7.75
2019-01-16T08:22:24.365Z,7.73
2019-01-16T08:24:54.363Z,7.70
2019-01-16T08:27:26.954Z,7.74
2019-01-16T08:30:09.289Z,7.70
2019-01-16T08:32:55.855Z,7.71
2019-01-16T08:35:31.631Z,7.69
2019-01-16T08:38:04.463Z,7.70
2019-01-16T08:40:40.395Z,7.68
2019-01-16T08:43:23.168Z,7.64
2019-01-16T08:46:03.924Z,7.64
2019-01-16T08:48:40.710Z,7.64
2019-01-16T08:51:22.838Z,7.59
2019-01-16T08:54:04.401Z,7.57
2019-01-16T08:56:34.415Z,7.56
2019-01-16T08:59:21.258Z,7.57
2019-01-16T09:01:51.558Z,7.57
2019-01-16T09:04:40.071Z,7.53
2019-01-16T09:07:18.883Z,7.51
2019-01-16T09:09:48.864Z,7.50
2019-01-16T09:12:35.535Z,7.48
2019-01-16T09:15:10.141Z,7.48
2019-01-16T09:17:45.741Z,7.46
2019-01-16T09:20:31.158Z,7.44
2019-01-16T09:23:03.913Z,7.48
2019-01-16T09:25:39.622Z,7.40
2019-01-16T09:28:21.685Z,7.42
2019-01-16T09:31:03.604Z,7.41
2019-01-16T09:33:42.334Z,7.39
2019-01-16T09:36:12.297Z,7.38
2019-01-16T09:39:01.525Z,7.37
2019-01-16T09:41:40.616Z,7.39
2019-01-16T09:44:15.709Z,7.36
2019-01-16T09:46:50.653Z,7.38
2019-01-16T09:49:23.758Z,7.39
2019-01-16T09:52:16.488Z,7.30
2019-01-16T09:54:58.456Z,7.33
2019-01-16T09:57:28.565Z,7.32
2019-01-16T10:00:08.854Z,7.28
2019-01-16T10:03:02.670Z,7.22
2019-01-16T10:05:39.235Z,7.16
2019-01-16T10:08:18.276Z,7.15
2019-01-16T10:11:08.395Z,7.10
2019-01-16T10:13:47.401Z,7.08
2019-01-16T10:16:20.257Z,7.04
2019-01-16T10:19:10.186Z,7.05
2019-01-16T10:22:01.617Z,7.04
2019-01-16T10:24:51.074Z,6.99
2019-01-16T10:27:44.516Z,6.97
2019-01-16T10:30:37.386Z,6.97
2019-01-16T10:33:13.069Z,6.97
2019-01-16T10:36:09.453Z,6.98
2019-01-16T10:38:52.931Z,6.97
2019-01-16T10:41:39.639Z,6.99
2019-01-16T10:44:27.803Z,6.95
2019-01-16T10:47:01.943Z,6.94
2019-01-16T10:49:38.107Z,6.94
2019-01-16T10:52:08.082Z,6.93
2019-01-16T10:54:47.521Z,6.94
2019-01-16T10:57:17.286Z,6.90
2019-01-16T11:00:03.206Z,6.92
2019-01-16T11:03:04.372Z,6.89
2019-01-16T11:05:49.144Z,6.86
2019-01-16T11:08:22.877Z,6.84
2019-01-16T11:10:55.950Z,6.88
2019-01-16T11:13:55.484Z,6.83
2019-01-16T11:16:36.422Z,6.82
2019-01-16T11:19:15.819Z,6.81
2019-01-16T11:22:08.213Z,6.80
2019-01-16T11:24:49.940Z,6.85
2019-01-16T11:27:27.473Z,6.83
2019-01-16T11:30:16.236Z,6.85
2019-01-16T11:33:15.820Z,6.81
2019-01-16T11:35:59.384Z,6.80
2019-01-16T11:38:50.646Z,6.78
2019-01-16T11:41:41.190Z,6.76
2019-01-16T11:44:20.736Z,6.75
2019-01-16T11:46:56.565Z,6.77
2019-01-16T11:49:47.482Z,6.75
2019-01-16T11:52:25.821Z,6.78
2019-01-16T11:54:59.135Z,6.78
2019-01-16T11:57:33.853Z,6.80
2019-01-16T12:00:08.685Z,6.75
2019-01-16T12:02:47.777Z,6.76
2019-01-16T12:05:17.809Z,6.79
2019-01-16T12:07:47.817Z,6.75
2019-01-16T12:10:29.885Z,6.74
2019-01-16T12:13:11.264Z,6.76
2019-01-16T12:16:00.616Z,6.78
2019-01-16T12:18:41.492Z,6.74
2019-01-16T12:21:30.843Z,6.73
2019-01-16T12:24:07.553Z,6.79
2019-01-16T12:26:43.867Z,6.76
2019-01-16T12:29:31.563Z,6.71
2019-01-16T12:32:13.644Z,6.74
2019-01-16T12:34:46.334Z,6.79
2019-01-16T12:37:22.250Z,6.79
2019-01-16T12:39:58.285Z,6.78
2019-01-16T12:42:40.199Z,6.79
2019-01-16T12:45:10.085Z,6.80
2019-01-16T12:47:49.106Z,6.79
2019-01-16T12:50:38.028Z,6.80
2019-01-16T12:53:08.126Z,6.81
2019-01-16T12:55:57.828Z,6.81
2019-01-16T12:58:33.787Z,6.81
2019-01-16T13:01:12.608Z,6.84
2019-01-16T13:03:42.793Z,6.86
2019-01-16T13:06:30.989Z,6.86
2019-01-16T13:09:16.621Z,6.85
2019-01-16T13:11:52.375Z,6.89
2019-01-16T13:14:33.825Z,6.89
2019-01-16T13:17:21.605Z,6.88
2019-01-16T13:19:54.363Z,6.89
2019-01-16T13:22:36.421Z,6.86
2019-01-16T13:25:12.150Z,6.80
2019-01-16T13:28:01.272Z,6.78
2019-01-16T13:30:38.790Z,6.76
2019-01-16T13:33:08.889Z,6.74
2019-01-16T13:35:38.822Z,6.73
2019-01-16T13:38:08.934Z,6.74
2019-01-16T13:43:39.760Z,6.73
2019-01-16T13:46:17.148Z,6.66
2019-01-16T13:49:05.174Z,6.58
2019-01-16T13:51:34.928Z,6.58
2019-01-16T13:54:07.780Z,6.57
2019-01-16T13:56:55.479Z,6.54
2019-01-16T13:59:38.495Z,6.57
2019-01-16T14:02:20.739Z,6.62
2019-01-16T14:05:10.251Z,6.51
2019-01-16T14:07:35.648Z,6.53
2019-01-16T14:10:26.726Z,6.48
2019-01-16T14:13:05.232Z,6.47
2019-01-16T14:15:42.803Z,6.46
2019-01-16T14:18:23.181Z,6.43
2019-01-16T14:20:57.667Z,6.42
2019-01-16T14:23:27.700Z,6.38
2019-01-16T14:26:16.041Z,6.44
2019-01-16T14:29:16.492Z,6.40
2019-01-16T14:31:49.183Z,6.34
2019-01-16T14:34:35.227Z,6.37
2019-01-16T14:37:26.514Z,6.33
2019-01-16T14:40:12.064Z,6.34
2019-01-16T14:45:40.657Z,6.26
2019-01-16T14:48:31.623Z,6.24
2019-01-16T14:51:04.717Z,6.22
2019-01-16T14:53:37.810Z,6.22
2019-01-16T14:56:39.244Z,6.22
2019-01-16T15:05:41.913Z,6.19
2019-01-16T15:08:25.272Z,6.19
2019-01-16T15:11:01.438Z,6.22
2019-01-16T15:13:34.518Z,6.23
2019-01-16T15:16:12.580Z,6.22
2019-01-16T15:19:00.710Z,6.22
2019-01-16T15:21:36.403Z,6.20
2019-01-16T15:24:11.544Z,6.19
2019-01-16T15:26:39.108Z,6.22
2019-01-16T15:29:16.825Z,6.19
2019-01-16T15:31:44.124Z,6.18
2019-01-16T15:34:26.218Z,6.11
2019-01-16T15:37:00.614Z,6.14
2019-01-16T15:39:48.862Z,6.14
2019-01-16T15:42:37.513Z,6.18
2019-01-16T15:45:14.496Z,6.18
2019-01-16T15:47:44.636Z,6.13
2019-01-16T15:50:20.564Z,6.18
2019-01-16T15:52:53.394Z,6.17
2019-01-16T15:55:35.683Z,6.16
2019-01-16T15:58:08.216Z,6.11
2019-01-16T16:00:38.379Z,6.12
2019-01-16T16:03:17.210Z,6.13
2019-01-16T16:06:03.225Z,6.14
2019-01-16T16:08:33.241Z,6.11
2019-01-16T16:11:15.152Z,6.08
2019-01-16T16:13:48.151Z,6.06
2019-01-16T16:16:30.213Z,6.05
2019-01-16T16:19:15.570Z,6.07
2019-01-16T16:21:45.715Z,6.03
2019-01-16T16:24:32.124Z,6.01
2019-01-16T16:27:10.011Z,5.98
2019-01-16T16:29:46.414Z,5.98
2019-01-16T16:32:31.318Z,5.98
2019-01-16T16:35:01.357Z,5.93
2019-01-16T16:37:31.378Z,5.93
2019-01-16T16:40:19.768Z,5.92
2019-01-16T16:42:55.309Z,5.87
2019-01-16T16:45:40.719Z,5.87
2019-01-16T16:48:19.658Z,5.82
2019-01-16T16:50:58.167Z,5.76
2019-01-16T16:53:44.391Z,5.77
2019-01-16T16:56:22.257Z,5.79
2019-01-16T16:59:08.398Z,5.76
2019-01-16T17:01:44.223Z,5.78
2019-01-16T17:04:14.216Z,5.76
2019-01-16T17:06:46.686Z,5.67
2019-01-16T17:09:28.488Z,5.69
2019-01-16T17:12:16.442Z,5.70
2019-01-16T17:15:01.211Z,5.69
2019-01-16T17:17:32.933Z,5.73
2019-01-16T17:20:09.022Z,5.70
2019-01-16T17:22:47.966Z,5.69
2019-01-16T17:25:29.772Z,5.66
2019-01-16T17:28:17.582Z,5.60
2019-01-16T17:31:03.869Z,5.60
2019-01-16T17:33:33.816Z,5.64
2019-01-16T17:36:03.774Z,5.58
2019-01-16T17:38:42.369Z,5.58
2019-01-16T17:41:18.231Z,5.54
2019-01-16T17:43:48.239Z,5.54
2019-01-16T17:46:33.339Z,5.54
2019-01-16T17:49:12.199Z,5.57
2019-01-16T17:51:58.345Z,5.54
2019-01-16T17:54:34.231Z,5.47
2019-01-16T17:57:20.523Z,5.47
2019-01-16T18:00:06.609Z,5.52
2019-01-16T18:02:39.607Z,5.51
2019-01-16T18:05:25.958Z,5.46
2019-01-16T18:07:58.868Z,5.46
2019-01-16T18:10:42.098Z,5.47
2019-01-16T18:13:14.579Z,5.56
2019-01-16T18:15:44.961Z,5.56
2019-01-16T18:18:23.790Z,5.51
2019-01-16T18:21:05.597Z,5.51
2019-01-16T18:23:51.739Z,5.55
2019-01-16T18:26:24.116Z,5.56
2019-01-16T18:29:06.082Z,5.54
2019-01-16T18:31:45.004Z,5.55
2019-01-16T18:34:18.031Z,5.58
2019-01-16T18:36:56.925Z,5.58
2019-01-16T18:39:43.026Z,5.53
2019-01-16T18:42:31.287Z,5.49
2019-01-16T18:45:02.660Z,5.48
2019-01-16T18:47:41.831Z,5.49
2019-01-16T18:50:14.374Z,5.50
2019-01-16T18:52:44.334Z,5.50
2019-01-16T18:55:23.326Z,5.43
2019-01-16T18:58:05.221Z,5.48
2019-01-16T19:00:47.409Z,5.49
2019-01-16T19:03:17.340Z,5.49
2019-01-16T19:05:53.188Z,5.42
2019-01-16T19:08:25.929Z,5.46
2019-01-16T19:10:59.464Z,5.46
2019-01-16T19:13:29.607Z,5.42
2019-01-16T19:16:00.206Z,5.41
2019-01-16T19:18:52.743Z,5.40
2019-01-16T19:21:25.627Z,5.40
2019-01-16T19:24:01.531Z,5.40
2019-01-16T19:26:31.488Z,5.40
2019-01-16T19:29:13.928Z,5.41
2019-01-16T19:31:43.870Z,5.35
2019-01-16T19:34:13.835Z,5.36
2019-01-16T19:36:49.600Z,5.39
2019-01-16T19:39:35.936Z,5.39
2019-01-16T19:42:09.650Z,5.36
2019-01-16T19:44:42.477Z,5.41
2019-01-16T19:47:28.593Z,5.37
2019-01-16T19:50:04.010Z,5.37
2019-01-16T19:52:48.876Z,5.49
2019-01-16T19:55:35.529Z,5.44
2019-01-16T19:58:11.552Z,5.45
2019-01-16T20:00:57.829Z,5.44
2019-01-16T20:03:33.551Z,5.44
2019-01-16T20:06:15.384Z,5.44
2019-01-16T20:08:51.351Z,5.44
2019-01-16T20:11:26.900Z,5.44
2019-01-16T20:14:13.343Z,5.44
2019-01-16T20:16:46.137Z,5.44
2019-01-16T20:19:31.258Z,5.40
2019-01-16T20:22:01.417Z,5.45
2019-01-16T20:24:46.346Z,5.45
2019-01-16T20:27:16.707Z,5.41
2019-01-16T20:29:46.662Z,5.41
2019-01-16T20:32:22.633Z,5.37
2019-01-16T20:35:09.981Z,5.37
2019-01-16T20:37:45.888Z,5.36
2019-01-16T20:40:21.617Z,5.36
2019-01-16T20:42:51.610Z,5.36
2019-01-16T20:45:21.496Z,5.36
2019-01-16T20:47:51.404Z,5.37
2019-01-16T20:50:21.467Z,5.34
2019-01-16T20:52:51.367Z,5.34
2019-01-16T20:55:37.763Z,5.33
2019-01-16T20:58:23.543Z,5.37
2019-01-16T21:00:59.647Z,5.38
2019-01-16T21:03:32.095Z,5.31
2019-01-16T21:06:18.105Z,5.31
2019-01-16T21:08:57.171Z,5.33
2019-01-16T21:11:27.115Z,5.35
2019-01-16T21:13:57.153Z,5.35
2019-01-16T21:16:29.788Z,5.31
2019-01-16T21:19:00.028Z,5.27
2019-01-16T21:21:45.987Z,5.31
2019-01-16T21:24:15.961Z,5.32
2019-01-16T21:26:51.434Z,5.27
2019-01-16T21:29:23.948Z,5.28
2019-01-16T21:32:10.795Z,5.28
2019-01-16T21:34:43.253Z,5.33
2019-01-16T21:37:13.172Z,5.33
2019-01-16T21:39:59.376Z,5.33
2019-01-16T21:42:45.781Z,5.35
2019-01-16T21:45:30.729Z,5.35
2019-01-16T21:48:06.587Z,5.35
2019-01-16T21:50:39.195Z,5.33
2019-01-16T21:53:11.752Z,5.30
2019-01-16T21:55:41.758Z,5.39
2019-01-16T21:58:28.014Z,5.39
2019-01-16T22:01:00.720Z,5.34
2019-01-16T22:03:36.362Z,5.28
2019-01-16T22:06:12.260Z,5.32
2019-01-16T22:08:57.104Z,5.32
2019-01-16T22:11:43.027Z,5.34
2019-01-16T22:14:31.105Z,5.34
2019-01-16T22:17:04.355Z,5.34
2019-01-16T22:19:34.281Z,5.34
2019-01-16T22:22:04.234Z,5.37
2019-01-16T22:24:36.668Z,5.37
2019-01-16T22:27:12.469Z,5.37
2019-01-16T22:29:45.048Z,5.37
2019-01-16T22:32:20.734Z,5.37
2019-01-16T22:34:50.675Z,5.36
2019-01-16T22:37:38.885Z,5.32
2019-01-16T22:40:26.625Z,5.35
2019-01-16T22:42:56.569Z,5.37
2019-01-16T22:45:42.845Z,5.37
2019-01-16T22:48:24.773Z,5.34
2019-01-16T22:51:00.436Z,5.33
2019-01-16T22:53:33.203Z,5.33
2019-01-16T22:56:03.530Z,5.30
2019-01-16T22:58:42.181Z,5.38
2019-01-16T23:01:12.703Z,5.38
2019-01-16T23:03:54.559Z,5.43
2019-01-16T23:06:40.363Z,5.37
2019-01-16T23:09:27.185Z,5.37
2019-01-16T23:11:57.353Z,5.44
2019-01-16T23:14:36.756Z,5.49
2019-01-16T23:17:06.640Z,5.48
2019-01-16T23:19:36.615Z,5.48
2019-01-16T23:22:21.356Z,5.27
2019-01-16T23:24:53.997Z,5.30
2019-01-16T23:27:26.660Z,5.30
2019-01-16T23:29:59.160Z,5.26
2019-01-16T23:32:29.156Z,5.21
2019-01-16T23:35:14.046Z,5.22
2019-01-16T23:38:00.398Z,5.17
2019-01-16T23:40:33.211Z,5.17
2019-01-16T23:43:09.546Z,5.18
2019-01-16T23:45:42.380Z,5.18
2019-01-16T23:48:12.332Z,5.18
2019-01-16T23:50:42.306Z,5.18
2019-01-16T23:53:14.701Z,5.12
2019-01-16T23:55:53.767Z,5.09
2019-01-16T23:58:38.820Z,5.09
